sensor_id;sensor_type;location;lat;lon;timestamp;P1;durP1;ratioP1;P2;durP2;ratioP2
14143;SDS011;7152;48.348;10.980;2024-01-11T00:00:32;54.43;;;24.67;;
14143;SDS011;7152;48.348;10.980;2024-01-11T00:02:58;55.33;;;25.23;;
14143;SDS011;7152;48.348;10.980;2024-01-11T00:05:24;49.90;;;24.40;;
14143;SDS011;7152;48.348;10.980;2024-01-11T00:07:50;54.53;;;25.90;;
14143;SDS011;7152;48.348;10.980;2024-01-11T00:10:16;51.23;;;25.37;;
14143;SDS011;7152;48.348;10.980;2024-01-11T00:12:42;51.90;;;25.23;;
14143;SDS011;7152;48.348;10.980;2024-01-11T00:15:08;53.10;;;25.93;;
14143;SDS011;7152;48.348;10.980;2024-01-11T00:17:34;53.70;;;25.23;;
14143;SDS011;7152;48.348;10.980;2024-01-11T00:20:00;54.77;;;24.67;;
14143;SDS011;7152;48.348;10.980;2024-01-11T00:22:26;58.13;;;25.50;;
14143;SDS011;7152;48.348;10.980;2024-01-11T00:24:52;57.60;;;24.87;;
14143;SDS011;7152;48.348;10.980;2024-01-11T00:27:18;56.50;;;27.80;;
14143;SDS011;7152;48.348;10.980;2024-01-11T00:29:44;52.03;;;25.30;;
14143;SDS011;7152;48.348;10.980;2024-01-11T00:32:10;55.53;;;25.93;;
14143;SDS011;7152;48.348;10.980;2024-01-11T00:34:36;49.00;;;25.43;;
14143;SDS011;7152;48.348;10.980;2024-01-11T00:37:02;46.43;;;25.57;;
14143;SDS011;7152;48.348;10.980;2024-01-11T00:39:28;47.73;;;23.57;;
14143;SDS011;7152;48.348;10.980;2024-01-11T00:41:54;54.67;;;24.80;;
14143;SDS011;7152;48.348;10.980;2024-01-11T00:44:20;49.97;;;25.17;;
14143;SDS011;7152;48.348;10.980;2024-01-11T00:46:46;60.07;;;26.10;;
14143;SDS011;7152;48.348;10.980;2024-01-11T00:49:12;57.60;;;26.50;;
14143;SDS011;7152;48.348;10.980;2024-01-11T00:51:38;59.77;;;25.83;;
14143;SDS011;7152;48.348;10.980;2024-01-11T00:54:04;57.40;;;27.80;;
14143;SDS011;7152;48.348;10.980;2024-01-11T00:56:30;53.37;;;25.17;;
14143;SDS011;7152;48.348;10.980;2024-01-11T00:58:56;63.53;;;28.17;;
14143;SDS011;7152;48.348;10.980;2024-01-11T01:01:21;49.87;;;27.37;;
14143;SDS011;7152;48.348;10.980;2024-01-11T01:03:47;56.87;;;27.27;;
14143;SDS011;7152;48.348;10.980;2024-01-11T01:06:13;51.53;;;25.40;;
14143;SDS011;7152;48.348;10.980;2024-01-11T01:08:39;50.10;;;24.70;;
14143;SDS011;7152;48.348;10.980;2024-01-11T01:11:05;57.60;;;26.73;;
14143;SDS011;7152;48.348;10.980;2024-01-11T01:13:30;55.77;;;27.70;;
14143;SDS011;7152;48.348;10.980;2024-01-11T01:15:56;55.17;;;27.43;;
14143;SDS011;7152;48.348;10.980;2024-01-11T01:18:22;61.63;;;27.93;;
14143;SDS011;7152;48.348;10.980;2024-01-11T01:20:48;62.10;;;29.70;;
14143;SDS011;7152;48.348;10.980;2024-01-11T01:23:14;66.63;;;28.23;;
14143;SDS011;7152;48.348;10.980;2024-01-11T01:25:39;66.37;;;28.73;;
14143;SDS011;7152;48.348;10.980;2024-01-11T01:28:05;61.43;;;30.30;;
14143;SDS011;7152;48.348;10.980;2024-01-11T01:30:31;67.57;;;29.03;;
14143;SDS011;7152;48.348;10.980;2024-01-11T01:32:57;51.93;;;27.00;;
14143;SDS011;7152;48.348;10.980;2024-01-11T01:35:23;62.20;;;29.03;;
14143;SDS011;7152;48.348;10.980;2024-01-11T01:37:48;54.23;;;26.97;;
14143;SDS011;7152;48.348;10.980;2024-01-11T01:40:15;53.73;;;27.77;;
14143;SDS011;7152;48.348;10.980;2024-01-11T01:42:42;59.13;;;28.33;;
14143;SDS011;7152;48.348;10.980;2024-01-11T01:45:09;51.10;;;26.57;;
14143;SDS011;7152;48.348;10.980;2024-01-11T01:47:35;66.23;;;29.73;;
14143;SDS011;7152;48.348;10.980;2024-01-11T01:50:02;50.57;;;26.87;;
14143;SDS011;7152;48.348;10.980;2024-01-11T01:52:28;58.07;;;29.33;;
14143;SDS011;7152;48.348;10.980;2024-01-11T01:54:54;56.40;;;27.80;;
14143;SDS011;7152;48.348;10.980;2024-01-11T01:57:22;52.57;;;26.20;;
14143;SDS011;7152;48.348;10.980;2024-01-11T01:59:49;61.77;;;28.00;;
14143;SDS011;7152;48.348;10.980;2024-01-11T02:02:19;56.63;;;26.70;;
14143;SDS011;7152;48.348;10.980;2024-01-11T02:04:46;62.17;;;27.77;;
14143;SDS011;7152;48.348;10.980;2024-01-11T02:07:12;60.03;;;28.67;;
14143;SDS011;7152;48.348;10.980;2024-01-11T02:09:39;54.70;;;27.43;;
14143;SDS011;7152;48.348;10.980;2024-01-11T02:12:06;54.83;;;26.80;;
14143;SDS011;7152;48.348;10.980;2024-01-11T02:14:39;53.37;;;27.13;;
14143;SDS011;7152;48.348;10.980;2024-01-11T02:17:05;54.27;;;27.33;;
14143;SDS011;7152;48.348;10.980;2024-01-11T02:19:32;53.37;;;27.43;;
14143;SDS011;7152;48.348;10.980;2024-01-11T02:22:02;50.23;;;26.87;;
14143;SDS011;7152;48.348;10.980;2024-01-11T02:24:33;54.70;;;27.97;;
14143;SDS011;7152;48.348;10.980;2024-01-11T02:27:03;52.33;;;27.20;;
14143;SDS011;7152;48.348;10.980;2024-01-11T02:29:33;56.13;;;27.70;;
14143;SDS011;7152;48.348;10.980;2024-01-11T02:32:00;52.13;;;26.90;;
14143;SDS011;7152;48.348;10.980;2024-01-11T02:34:27;55.37;;;27.17;;
14143;SDS011;7152;48.348;10.980;2024-01-11T02:36:54;52.80;;;27.13;;
14143;SDS011;7152;48.348;10.980;2024-01-11T02:39:20;57.77;;;27.70;;
14143;SDS011;7152;48.348;10.980;2024-01-11T02:41:49;58.03;;;28.77;;
14143;SDS011;7152;48.348;10.980;2024-01-11T02:44:16;50.20;;;25.47;;
14143;SDS011;7152;48.348;10.980;2024-01-11T02:46:42;59.83;;;29.27;;
14143;SDS011;7152;48.348;10.980;2024-01-11T02:49:08;58.67;;;28.40;;
14143;SDS011;7152;48.348;10.980;2024-01-11T02:51:34;59.17;;;29.90;;
14143;SDS011;7152;48.348;10.980;2024-01-11T02:54:01;53.53;;;27.77;;
14143;SDS011;7152;48.348;10.980;2024-01-11T02:56:27;55.50;;;26.90;;
14143;SDS011;7152;48.348;10.980;2024-01-11T02:58:52;62.33;;;29.57;;
14143;SDS011;7152;48.348;10.980;2024-01-11T03:01:18;61.37;;;29.63;;
14143;SDS011;7152;48.348;10.980;2024-01-11T03:03:44;56.77;;;29.63;;
14143;SDS011;7152;48.348;10.980;2024-01-11T03:06:10;59.17;;;28.40;;
14143;SDS011;7152;48.348;10.980;2024-01-11T03:08:36;62.70;;;29.83;;
14143;SDS011;7152;48.348;10.980;2024-01-11T03:11:02;62.53;;;29.90;;
14143;SDS011;7152;48.348;10.980;2024-01-11T03:13:28;55.23;;;28.70;;
14143;SDS011;7152;48.348;10.980;2024-01-11T03:15:54;58.93;;;28.53;;
14143;SDS011;7152;48.348;10.980;2024-01-11T03:18:19;61.10;;;30.87;;
14143;SDS011;7152;48.348;10.980;2024-01-11T03:20:45;65.80;;;30.60;;
14143;SDS011;7152;48.348;10.980;2024-01-11T03:23:11;68.83;;;32.90;;
14143;SDS011;7152;48.348;10.980;2024-01-11T03:25:37;60.10;;;29.13;;
14143;SDS011;7152;48.348;10.980;2024-01-11T03:28:03;59.00;;;30.10;;
14143;SDS011;7152;48.348;10.980;2024-01-11T03:30:29;60.87;;;29.60;;
14143;SDS011;7152;48.348;10.980;2024-01-11T03:32:55;64.53;;;31.10;;
14143;SDS011;7152;48.348;10.980;2024-01-11T03:35:21;60.63;;;28.00;;
14143;SDS011;7152;48.348;10.980;2024-01-11T03:37:47;56.93;;;28.87;;
14143;SDS011;7152;48.348;10.980;2024-01-11T03:40:13;60.47;;;29.67;;
14143;SDS011;7152;48.348;10.980;2024-01-11T03:42:39;58.70;;;29.33;;
14143;SDS011;7152;48.348;10.980;2024-01-11T03:45:06;57.90;;;29.20;;
14143;SDS011;7152;48.348;10.980;2024-01-11T03:47:33;54.73;;;29.73;;
14143;SDS011;7152;48.348;10.980;2024-01-11T03:49:58;53.47;;;28.13;;
14143;SDS011;7152;48.348;10.980;2024-01-11T03:52:24;58.03;;;29.30;;
14143;SDS011;7152;48.348;10.980;2024-01-11T03:54:50;55.73;;;29.03;;
14143;SDS011;7152;48.348;10.980;2024-01-11T03:57:16;56.87;;;28.77;;
14143;SDS011;7152;48.348;10.980;2024-01-11T03:59:42;63.00;;;29.13;;
14143;SDS011;7152;48.348;10.980;2024-01-11T04:02:08;59.40;;;27.60;;
14143;SDS011;7152;48.348;10.980;2024-01-11T04:04:34;62.90;;;29.87;;
14143;SDS011;7152;48.348;10.980;2024-01-11T04:07:00;56.50;;;28.47;;
14143;SDS011;7152;48.348;10.980;2024-01-11T04:09:26;61.07;;;28.93;;
14143;SDS011;7152;48.348;10.980;2024-01-11T04:11:52;54.00;;;26.90;;
14143;SDS011;7152;48.348;10.980;2024-01-11T04:14:17;57.37;;;29.70;;
14143;SDS011;7152;48.348;10.980;2024-01-11T04:16:43;58.53;;;29.23;;
14143;SDS011;7152;48.348;10.980;2024-01-11T04:19:10;59.27;;;28.77;;
14143;SDS011;7152;48.348;10.980;2024-01-11T04:21:36;59.53;;;29.43;;
14143;SDS011;7152;48.348;10.980;2024-01-11T04:24:05;51.87;;;27.17;;
14143;SDS011;7152;48.348;10.980;2024-01-11T04:26:31;57.00;;;28.37;;
14143;SDS011;7152;48.348;10.980;2024-01-11T04:28:58;60.90;;;28.50;;
14143;SDS011;7152;48.348;10.980;2024-01-11T04:31:25;56.07;;;28.67;;
14143;SDS011;7152;48.348;10.980;2024-01-11T04:33:51;55.83;;;27.80;;
14143;SDS011;7152;48.348;10.980;2024-01-11T04:36:17;50.67;;;26.30;;
14143;SDS011;7152;48.348;10.980;2024-01-11T04:38:43;52.40;;;27.73;;
14143;SDS011;7152;48.348;10.980;2024-01-11T04:41:13;55.90;;;26.40;;
14143;SDS011;7152;48.348;10.980;2024-01-11T04:43:40;52.63;;;27.10;;
14143;SDS011;7152;48.348;10.980;2024-01-11T04:46:16;53.47;;;26.80;;
14143;SDS011;7152;48.348;10.980;2024-01-11T04:48:44;52.63;;;26.57;;
14143;SDS011;7152;48.348;10.980;2024-01-11T04:51:10;51.03;;;25.63;;
14143;SDS011;7152;48.348;10.980;2024-01-11T04:53:36;52.77;;;26.20;;
14143;SDS011;7152;48.348;10.980;2024-01-11T04:56:06;57.27;;;27.13;;
14143;SDS011;7152;48.348;10.980;2024-01-11T04:58:33;49.50;;;25.83;;
14143;SDS011;7152;48.348;10.980;2024-01-11T05:00:59;54.77;;;28.17;;
14143;SDS011;7152;48.348;10.980;2024-01-11T05:03:25;59.50;;;27.57;;
14143;SDS011;7152;48.348;10.980;2024-01-11T05:05:51;65.23;;;31.53;;
14143;SDS011;7152;48.348;10.980;2024-01-11T05:08:17;55.90;;;28.90;;
14143;SDS011;7152;48.348;10.980;2024-01-11T05:10:43;56.10;;;27.80;;
14143;SDS011;7152;48.348;10.980;2024-01-11T05:13:10;57.83;;;28.77;;
14143;SDS011;7152;48.348;10.980;2024-01-11T05:15:36;60.97;;;30.13;;
14143;SDS011;7152;48.348;10.980;2024-01-11T05:18:01;57.73;;;29.40;;
14143;SDS011;7152;48.348;10.980;2024-01-11T05:20:27;58.80;;;30.03;;
14143;SDS011;7152;48.348;10.980;2024-01-11T05:22:53;61.87;;;30.50;;
14143;SDS011;7152;48.348;10.980;2024-01-11T05:25:19;57.10;;;29.90;;
14143;SDS011;7152;48.348;10.980;2024-01-11T05:27:45;65.07;;;29.33;;
14143;SDS011;7152;48.348;10.980;2024-01-11T05:30:11;75.83;;;34.23;;
14143;SDS011;7152;48.348;10.980;2024-01-11T05:32:37;56.73;;;29.87;;
14143;SDS011;7152;48.348;10.980;2024-01-11T05:35:03;61.17;;;30.20;;
14143;SDS011;7152;48.348;10.980;2024-01-11T05:37:29;60.20;;;30.00;;
14143;SDS011;7152;48.348;10.980;2024-01-11T05:39:55;62.60;;;30.20;;
14143;SDS011;7152;48.348;10.980;2024-01-11T05:42:22;59.00;;;29.13;;
14143;SDS011;7152;48.348;10.980;2024-01-11T05:44:48;62.57;;;30.03;;
14143;SDS011;7152;48.348;10.980;2024-01-11T05:47:15;61.10;;;32.57;;
14143;SDS011;7152;48.348;10.980;2024-01-11T05:49:41;68.93;;;31.70;;
14143;SDS011;7152;48.348;10.980;2024-01-11T05:52:07;59.97;;;29.20;;
14143;SDS011;7152;48.348;10.980;2024-01-11T05:54:33;57.53;;;30.27;;
14143;SDS011;7152;48.348;10.980;2024-01-11T05:56:59;60.73;;;30.67;;
14143;SDS011;7152;48.348;10.980;2024-01-11T05:59:25;64.53;;;30.53;;
14143;SDS011;7152;48.348;10.980;2024-01-11T06:01:51;55.77;;;29.53;;
14143;SDS011;7152;48.348;10.980;2024-01-11T06:04:17;57.27;;;29.63;;
14143;SDS011;7152;48.348;10.980;2024-01-11T06:06:42;65.37;;;31.30;;
14143;SDS011;7152;48.348;10.980;2024-01-11T06:09:08;59.37;;;29.87;;
14143;SDS011;7152;48.348;10.980;2024-01-11T06:11:35;64.17;;;30.20;;
14143;SDS011;7152;48.348;10.980;2024-01-11T06:14:01;61.87;;;29.97;;
14143;SDS011;7152;48.348;10.980;2024-01-11T06:16:28;61.67;;;29.40;;
14143;SDS011;7152;48.348;10.980;2024-01-11T06:18:54;61.13;;;30.33;;
14143;SDS011;7152;48.348;10.980;2024-01-11T06:21:20;58.47;;;29.27;;
14143;SDS011;7152;48.348;10.980;2024-01-11T16:35:49;71.30;;;30.60;;
14143;SDS011;7152;48.348;10.980;2024-01-11T16:38:15;64.10;;;29.53;;
14143;SDS011;7152;48.348;10.980;2024-01-11T16:40:41;73.57;;;34.60;;
14143;SDS011;7152;48.348;10.980;2024-01-11T16:43:07;69.13;;;34.47;;
14143;SDS011;7152;48.348;10.980;2024-01-11T16:45:35;70.97;;;35.47;;
14143;SDS011;7152;48.348;10.980;2024-01-11T16:48:02;66.17;;;34.27;;
14143;SDS011;7152;48.348;10.980;2024-01-11T16:50:32;70.67;;;35.30;;
14143;SDS011;7152;48.348;10.980;2024-01-11T16:52:58;70.97;;;37.00;;
14143;SDS011;7152;48.348;10.980;2024-01-11T16:55:24;74.13;;;37.50;;
14143;SDS011;7152;48.348;10.980;2024-01-11T16:57:50;75.13;;;36.57;;
14143;SDS011;7152;48.348;10.980;2024-01-11T17:00:16;70.57;;;34.43;;
14143;SDS011;7152;48.348;10.980;2024-01-11T17:02:44;72.40;;;33.40;;
14143;SDS011;7152;48.348;10.980;2024-01-11T17:05:10;76.63;;;36.90;;
14143;SDS011;7152;48.348;10.980;2024-01-11T17:07:36;66.17;;;34.63;;
14143;SDS011;7152;48.348;10.980;2024-01-11T17:10:02;77.73;;;37.47;;
14143;SDS011;7152;48.348;10.980;2024-01-11T17:12:28;85.33;;;38.50;;
14143;SDS011;7152;48.348;10.980;2024-01-11T17:14:54;81.40;;;38.30;;
14143;SDS011;7152;48.348;10.980;2024-01-11T17:17:20;85.27;;;40.63;;
14143;SDS011;7152;48.348;10.980;2024-01-11T17:19:46;80.10;;;37.80;;
14143;SDS011;7152;48.348;10.980;2024-01-11T17:22:12;79.87;;;36.50;;
14143;SDS011;7152;48.348;10.980;2024-01-11T17:24:38;84.83;;;39.53;;
14143;SDS011;7152;48.348;10.980;2024-01-11T17:27:04;83.90;;;38.53;;
14143;SDS011;7152;48.348;10.980;2024-01-11T17:29:36;88.10;;;40.27;;
14143;SDS011;7152;48.348;10.980;2024-01-11T17:32:03;77.23;;;37.57;;
14143;SDS011;7152;48.348;10.980;2024-01-11T17:34:29;86.60;;;41.03;;
14143;SDS011;7152;48.348;10.980;2024-01-11T17:36:55;85.53;;;42.97;;
14143;SDS011;7152;48.348;10.980;2024-01-11T17:39:21;89.43;;;42.33;;
14143;SDS011;7152;48.348;10.980;2024-01-11T17:41:48;93.13;;;41.90;;
14143;SDS011;7152;48.348;10.980;2024-01-11T17:44:15;86.57;;;40.67;;
14143;SDS011;7152;48.348;10.980;2024-01-11T17:46:41;82.33;;;38.90;;
14143;SDS011;7152;48.348;10.980;2024-01-11T17:49:12;81.40;;;39.60;;
14143;SDS011;7152;48.348;10.980;2024-01-11T17:51:38;81.33;;;38.83;;
14143;SDS011;7152;48.348;10.980;2024-01-11T17:54:05;78.93;;;37.77;;
14143;SDS011;7152;48.348;10.980;2024-01-11T17:56:31;81.53;;;38.43;;
14143;SDS011;7152;48.348;10.980;2024-01-11T17:59:01;85.97;;;40.73;;
14143;SDS011;7152;48.348;10.980;2024-01-11T18:01:30;84.37;;;40.17;;
14143;SDS011;7152;48.348;10.980;2024-01-11T18:03:56;83.33;;;39.33;;
14143;SDS011;7152;48.348;10.980;2024-01-11T18:06:22;85.57;;;40.13;;
14143;SDS011;7152;48.348;10.980;2024-01-11T18:08:48;95.87;;;41.37;;
14143;SDS011;7152;48.348;10.980;2024-01-11T18:11:14;92.20;;;42.30;;
14143;SDS011;7152;48.348;10.980;2024-01-11T18:13:40;86.53;;;40.93;;
14143;SDS011;7152;48.348;10.980;2024-01-11T18:16:06;96.73;;;42.83;;
14143;SDS011;7152;48.348;10.980;2024-01-11T18:18:32;91.40;;;41.57;;
14143;SDS011;7152;48.348;10.980;2024-01-11T18:20:58;87.80;;;42.80;;
14143;SDS011;7152;48.348;10.980;2024-01-11T18:23:28;88.57;;;41.60;;
14143;SDS011;7152;48.348;10.980;2024-01-11T18:25:54;98.97;;;45.27;;
14143;SDS011;7152;48.348;10.980;2024-01-11T18:28:20;90.10;;;41.13;;
14143;SDS011;7152;48.348;10.980;2024-01-11T18:30:46;90.63;;;42.67;;
14143;SDS011;7152;48.348;10.980;2024-01-11T18:33:13;95.47;;;41.43;;
14143;SDS011;7152;48.348;10.980;2024-01-11T18:35:39;100.57;;;43.00;;
14143;SDS011;7152;48.348;10.980;2024-01-11T18:38:05;91.83;;;42.43;;
14143;SDS011;7152;48.348;10.980;2024-01-11T18:40:31;91.97;;;42.67;;
14143;SDS011;7152;48.348;10.980;2024-01-11T18:42:56;94.93;;;43.23;;
14143;SDS011;7152;48.348;10.980;2024-01-11T18:45:24;91.10;;;44.70;;
14143;SDS011;7152;48.348;10.980;2024-01-11T18:47:50;94.00;;;41.90;;
14143;SDS011;7152;48.348;10.980;2024-01-11T18:50:17;86.77;;;39.70;;
14143;SDS011;7152;48.348;10.980;2024-01-11T18:52:44;86.40;;;39.97;;
14143;SDS011;7152;48.348;10.980;2024-01-11T18:55:10;80.87;;;39.07;;
14143;SDS011;7152;48.348;10.980;2024-01-11T18:57:36;85.13;;;40.37;;
14143;SDS011;7152;48.348;10.980;2024-01-11T19:00:02;87.10;;;39.77;;
14143;SDS011;7152;48.348;10.980;2024-01-11T19:02:31;78.83;;;37.77;;
14143;SDS011;7152;48.348;10.980;2024-01-11T19:04:57;84.03;;;39.23;;
14143;SDS011;7152;48.348;10.980;2024-01-11T19:07:22;92.53;;;41.53;;
14143;SDS011;7152;48.348;10.980;2024-01-11T19:09:48;88.33;;;42.87;;
14143;SDS011;7152;48.348;10.980;2024-01-11T19:12:14;90.33;;;41.97;;
14143;SDS011;7152;48.348;10.980;2024-01-11T19:14:40;88.27;;;40.27;;
14143;SDS011;7152;48.348;10.980;2024-01-11T19:17:06;86.10;;;42.03;;
14143;SDS011;7152;48.348;10.980;2024-01-11T19:19:32;92.70;;;42.73;;
14143;SDS011;7152;48.348;10.980;2024-01-11T19:21:57;87.07;;;41.27;;
14143;SDS011;7152;48.348;10.980;2024-01-11T19:24:24;84.00;;;40.23;;
14143;SDS011;7152;48.348;10.980;2024-01-11T19:26:50;89.30;;;42.20;;
14143;SDS011;7152;48.348;10.980;2024-01-11T19:29:16;87.83;;;40.90;;
14143;SDS011;7152;48.348;10.980;2024-01-11T19:31:42;90.57;;;41.23;;
14143;SDS011;7152;48.348;10.980;2024-01-11T19:34:10;91.20;;;43.50;;
14143;SDS011;7152;48.348;10.980;2024-01-11T19:36:37;92.70;;;41.87;;
14143;SDS011;7152;48.348;10.980;2024-01-11T19:39:04;85.77;;;42.43;;
14143;SDS011;7152;48.348;10.980;2024-01-11T19:41:30;98.87;;;41.37;;
14143;SDS011;7152;48.348;10.980;2024-01-11T19:43:57;84.87;;;41.63;;
14143;SDS011;7152;48.348;10.980;2024-01-11T19:46:23;84.40;;;41.00;;
14143;SDS011;7152;48.348;10.980;2024-01-11T19:48:49;82.97;;;42.10;;
14143;SDS011;7152;48.348;10.980;2024-01-11T19:51:15;86.67;;;39.67;;
14143;SDS011;7152;48.348;10.980;2024-01-11T19:53:41;82.47;;;40.20;;
14143;SDS011;7152;48.348;10.980;2024-01-11T19:56:20;77.40;;;41.00;;
14143;SDS011;7152;48.348;10.980;2024-01-11T19:58:47;83.37;;;39.87;;
14143;SDS011;7152;48.348;10.980;2024-01-11T20:01:14;97.83;;;44.30;;
14143;SDS011;7152;48.348;10.980;2024-01-11T20:03:40;84.30;;;41.83;;
14143;SDS011;7152;48.348;10.980;2024-01-11T20:06:06;76.40;;;38.17;;
14143;SDS011;7152;48.348;10.980;2024-01-11T20:08:34;77.97;;;38.77;;
14143;SDS011;7152;48.348;10.980;2024-01-11T20:11:00;87.27;;;41.20;;
14143;SDS011;7152;48.348;10.980;2024-01-11T20:13:26;81.33;;;38.57;;
14143;SDS011;7152;48.348;10.980;2024-01-11T20:15:52;82.07;;;41.13;;
14143;SDS011;7152;48.348;10.980;2024-01-11T20:18:18;76.70;;;39.80;;
14143;SDS011;7152;48.348;10.980;2024-01-11T20:20:45;88.27;;;40.17;;
14143;SDS011;7152;48.348;10.980;2024-01-11T20:23:11;89.37;;;45.53;;
14143;SDS011;7152;48.348;10.980;2024-01-11T20:25:38;80.50;;;39.07;;
14143;SDS011;7152;48.348;10.980;2024-01-11T20:28:05;77.33;;;37.50;;
14143;SDS011;7152;48.348;10.980;2024-01-11T20:30:34;75.37;;;37.10;;
14143;SDS011;7152;48.348;10.980;2024-01-11T20:33:00;81.93;;;39.13;;
14143;SDS011;7152;48.348;10.980;2024-01-11T20:35:28;73.03;;;37.83;;
14143;SDS011;7152;48.348;10.980;2024-01-11T20:37:54;83.80;;;37.77;;
14143;SDS011;7152;48.348;10.980;2024-01-11T20:40:20;78.80;;;37.50;;
14143;SDS011;7152;48.348;10.980;2024-01-11T20:42:46;77.90;;;36.50;;
14143;SDS011;7152;48.348;10.980;2024-01-11T20:45:12;115.53;;;47.73;;
14143;SDS011;7152;48.348;10.980;2024-01-11T20:47:38;174.33;;;74.63;;
14143;SDS011;7152;48.348;10.980;2024-01-11T20:50:04;155.93;;;60.50;;
14143;SDS011;7152;48.348;10.980;2024-01-11T20:52:33;83.30;;;39.23;;
14143;SDS011;7152;48.348;10.980;2024-01-11T20:54:59;81.63;;;36.47;;
14143;SDS011;7152;48.348;10.980;2024-01-11T20:57:25;85.87;;;39.73;;
14143;SDS011;7152;48.348;10.980;2024-01-11T20:59:51;78.97;;;38.73;;
14143;SDS011;7152;48.348;10.980;2024-01-11T21:02:17;129.30;;;55.43;;
14143;SDS011;7152;48.348;10.980;2024-01-11T21:04:43;199.53;;;84.57;;
14143;SDS011;7152;48.348;10.980;2024-01-11T21:07:09;137.87;;;61.20;;
14143;SDS011;7152;48.348;10.980;2024-01-11T21:09:34;90.17;;;42.73;;
14143;SDS011;7152;48.348;10.980;2024-01-11T21:12:00;80.23;;;38.70;;
14143;SDS011;7152;48.348;10.980;2024-01-11T21:14:26;74.93;;;37.57;;
14143;SDS011;7152;48.348;10.980;2024-01-11T21:16:52;78.63;;;37.77;;
14143;SDS011;7152;48.348;10.980;2024-01-11T21:19:18;88.60;;;42.03;;
14143;SDS011;7152;48.348;10.980;2024-01-11T21:21:44;79.73;;;39.83;;
14143;SDS011;7152;48.348;10.980;2024-01-11T21:24:10;82.13;;;39.03;;
14143;SDS011;7152;48.348;10.980;2024-01-11T21:26:36;82.67;;;37.00;;
14143;SDS011;7152;48.348;10.980;2024-01-11T21:29:02;80.37;;;39.00;;
14143;SDS011;7152;48.348;10.980;2024-01-11T21:31:29;83.10;;;39.67;;
14143;SDS011;7152;48.348;10.980;2024-01-11T21:33:58;74.33;;;35.73;;
14143;SDS011;7152;48.348;10.980;2024-01-11T21:36:33;78.20;;;34.80;;
14143;SDS011;7152;48.348;10.980;2024-01-11T21:39:00;74.43;;;38.00;;
14143;SDS011;7152;48.348;10.980;2024-01-11T21:41:27;76.43;;;38.47;;
14143;SDS011;7152;48.348;10.980;2024-01-11T21:43:54;75.23;;;35.53;;
